Time;durP1;ratioP1;P1;durP2;ratioP2;P2;SDS_P1;SDS_P2;PMS_P1;PMS_P2;Temp;Humidity;BMP_temperature;BMP_pressure;BME280_temperature;BME280_humidity;BME280_pressure;Samples;Min_cycle;Max_cycle;Signal;HPM_P1;HPM_P2
2023/07/07 00:01:10;;;;;;;10.68;6.38;;;22.80;99.90;;;;;;5154770;27;20072;-75
2023/07/07 00:07:14;;;;;;;13.15;6.68;;;22.70;99.90;;;;;;5109580;22;20053;-77
2023/07/07 00:09:40;;;;;;;11.60;6.43;;;22.70;99.90;;;;;;4992345;28;20038;-74
2023/07/07 00:12:06;;;;;;;11.52;6.28;;;22.60;99.90;;;;;;4992722;28;20026;-76
2023/07/07 00:14:32;;;;;;;13.88;7.13;;;22.60;99.90;;;;;;4991448;28;20116;-77
2023/07/07 00:17:01;;;;;;;11.05;6.20;;;22.60;99.90;;;;;;4992576;28;20033;-74
2023/07/07 00:19:34;;;;;;;14.05;7.95;;;22.60;99.90;;;;;;4992363;28;20050;-76
2023/07/07 00:22:01;;;;;;;10.90;6.82;;;22.50;99.90;;;;;;4992293;28;20070;-74
2023/07/07 00:24:28;;;;;;;13.07;7.47;;;22.50;99.90;;;;;;5001489;28;20033;-76
2023/07/07 00:26:53;;;;;;;12.48;6.93;;;22.50;99.90;;;;;;4994783;28;20034;-76
2023/07/07 00:29:19;;;;;;;12.55;6.78;;;22.50;99.90;;;;;;5007284;28;20026;-77
2023/07/07 00:31:45;;;;;;;14.30;7.35;;;22.50;99.90;;;;;;4992500;28;20022;-76
2023/07/07 00:34:11;;;;;;;12.32;6.70;;;22.50;99.90;;;;;;4992237;28;20476;-76
2023/07/07 00:36:37;;;;;;;13.13;6.82;;;22.50;99.90;;;;;;4992143;28;20022;-77
2023/07/07 00:39:02;;;;;;;12.13;6.45;;;22.50;99.90;;;;;;4990539;28;20042;-76
2023/07/07 00:41:29;;;;;;;12.57;6.82;;;22.40;99.90;;;;;;4992354;28;20023;-76
2023/07/07 00:44:04;;;;;;;11.85;5.43;;;22.40;99.90;;;;;;4992294;28;20122;-75
2023/07/07 00:46:30;;;;;;;12.48;7.38;;;22.40;99.90;;;;;;4992263;28;20030;-77
2023/07/07 00:48:57;;;;;;;15.50;7.03;;;22.50;99.90;;;;;;4990901;28;20018;-77
2023/07/07 00:51:34;;;;;;;14.57;6.70;;;22.50;99.90;;;;;;4990562;28;20208;-76
2023/07/07 00:54:04;;;;;;;11.45;6.50;;;22.40;99.90;;;;;;5007249;28;20467;-75
2023/07/07 00:56:39;;;;;;;12.20;6.53;;;22.40;99.90;;;;;;4991115;28;20451;-76
2023/07/07 00:59:12;;;;;;;13.70;7.00;;;22.40;99.90;;;;;;4979419;28;20045;-77
2023/07/07 01:01:39;;;;;;;11.05;6.13;;;22.40;99.90;;;;;;5009445;28;20041;-77
2023/07/07 01:04:10;;;;;;;13.15;7.43;;;22.40;99.90;;;;;;4996073;28;20030;-77
2023/07/07 01:06:41;;;;;;;14.70;6.93;;;22.40;99.90;;;;;;4995825;28;20038;-74
2023/07/07 01:09:10;;;;;;;11.93;6.95;;;22.40;99.90;;;;;;5015734;28;20100;-76
2023/07/07 01:11:37;;;;;;;12.65;6.03;;;22.40;99.90;;;;;;5015474;28;20105;-76
2023/07/07 01:14:10;;;;;;;15.07;6.97;;;22.30;99.90;;;;;;5015650;28;20022;-76
2023/07/07 01:16:45;;;;;;;14.40;6.63;;;22.30;99.90;;;;;;4997644;28;20543;-77
2023/07/07 01:19:40;;;;;;;15.40;6.72;;;22.20;99.90;;;;;;5014053;28;20120;-75
2023/07/07 01:22:39;;;;;;;12.38;6.25;;;22.10;99.90;;;;;;5004412;28;20022;-76
2023/07/07 01:25:45;;;;;;;16.40;7.43;;;22.10;99.90;;;;;;5013985;28;20034;-75
2023/07/07 01:28:20;;;;;;;11.00;6.20;;;22.10;99.90;;;;;;5015335;28;20029;-76
2023/07/07 01:31:19;;;;;;;10.10;5.82;;;22.10;99.90;;;;;;4997250;28;20570;-74
2023/07/07 01:33:47;;;;;;;14.32;6.63;;;22.10;99.90;;;;;;4985598;28;20590;-76
2023/07/07 01:36:13;;;;;;;13.85;6.63;;;22.10;99.90;;;;;;4993117;28;20023;-74
2023/07/07 01:38:46;;;;;;;12.90;6.97;;;22.00;99.90;;;;;;4976637;28;20054;-76
2023/07/07 01:41:32;;;;;;;10.32;6.10;;;22.00;99.90;;;;;;4993212;28;20046;-76
2023/07/07 01:44:04;;;;;;;14.13;7.00;;;21.90;99.90;;;;;;4976967;28;20483;-77
2023/07/07 01:46:55;;;;;;;18.10;6.87;;;21.90;99.90;;;;;;4993191;28;20031;-75
2023/07/07 01:49:26;;;;;;;15.93;8.63;;;21.90;99.90;;;;;;4976328;28;20034;-76
2023/07/07 01:52:19;;;;;;;14.35;8.13;;;21.90;99.90;;;;;;4990115;28;20034;-78
2023/07/07 01:54:53;;;;;;;12.55;6.57;;;21.90;99.90;;;;;;4971802;28;20515;-78
2023/07/07 01:57:21;;;;;;;12.57;6.25;;;21.80;99.90;;;;;;4989183;28;20038;-76
2023/07/07 01:59:47;;;;;;;12.35;6.63;;;21.80;99.90;;;;;;4991773;28;20045;-76
2023/07/07 02:02:14;;;;;;;13.23;6.63;;;21.80;99.90;;;;;;4976239;28;20045;-77
2023/07/07 02:04:39;;;;;;;15.30;6.70;;;21.90;99.90;;;;;;4973437;28;20035;-78
2023/07/07 02:07:05;;;;;;;13.07;6.57;;;21.80;99.90;;;;;;4969652;28;20089;-78
2023/07/07 02:09:33;;;;;;;10.45;6.25;;;21.90;99.90;;;;;;5004613;28;20042;-78
2023/07/07 02:11:59;;;;;;;13.52;6.15;;;21.80;99.90;;;;;;5013065;28;20052;-77
2023/07/07 02:14:25;;;;;;;14.05;6.03;;;21.80;99.90;;;;;;5011818;28;20526;-76
2023/07/07 02:16:51;;;;;;;12.52;6.18;;;21.80;99.90;;;;;;5011292;28;20030;-78
2023/07/07 02:19:17;;;;;;;10.80;6.13;;;21.70;99.90;;;;;;5011597;28;20037;-77
2023/07/07 02:21:43;;;;;;;13.48;6.75;;;21.70;99.90;;;;;;5011613;28;20076;-76
2023/07/07 02:24:09;;;;;;;12.18;7.25;;;21.70;99.90;;;;;;4993660;28;20026;-77
2023/07/07 02:26:35;;;;;;;10.85;6.70;;;21.60;99.90;;;;;;5011706;28;20437;-76
2023/07/07 02:29:01;;;;;;;11.73;6.78;;;21.70;99.90;;;;;;4993327;28;20033;-78
2023/07/07 02:31:27;;;;;;;15.65;7.15;;;21.60;99.90;;;;;;5013317;28;20045;-76
2023/07/07 02:33:53;;;;;;;12.50;6.88;;;21.60;99.90;;;;;;4993664;28;20521;-79
2023/07/07 02:36:19;;;;;;;11.93;6.97;;;21.60;99.90;;;;;;5011569;28;20019;-78
2023/07/07 02:38:46;;;;;;;12.27;6.60;;;21.50;99.90;;;;;;4992624;28;20046;-77
2023/07/07 02:41:12;;;;;;;14.65;6.93;;;21.50;99.90;;;;;;4993376;28;20022;-75
2023/07/07 02:43:38;;;;;;;11.27;6.60;;;21.50;99.90;;;;;;5011587;28;20022;-74
2023/07/07 02:46:04;;;;;;;16.70;8.38;;;21.40;99.90;;;;;;5012029;28;20475;-76
2023/07/07 02:48:30;;;;;;;14.10;6.95;;;21.40;99.90;;;;;;5012737;28;20447;-77
2023/07/07 02:50:58;;;;;;;14.40;6.82;;;21.40;99.90;;;;;;4994940;28;20061;-76
2023/07/07 02:53:30;;;;;;;12.98;7.95;;;21.40;99.90;;;;;;4990541;28;20030;-76
2023/07/07 02:55:57;;;;;;;11.20;6.75;;;21.40;99.90;;;;;;5008503;28;20450;-77
2023/07/07 02:58:23;;;;;;;13.48;7.30;;;21.30;99.90;;;;;;5011185;28;20541;-75
2023/07/07 03:00:50;;;;;;;14.32;7.07;;;21.30;99.90;;;;;;4994838;28;20026;-76
2023/07/07 03:03:18;;;;;;;16.23;6.90;;;21.10;99.90;;;;;;5007512;28;20069;-75
2023/07/07 03:05:45;;;;;;;14.95;7.13;;;21.10;99.90;;;;;;4996673;28;20172;-74
2023/07/07 03:08:12;;;;;;;13.35;7.20;;;21.10;99.90;;;;;;4962093;28;1263878;-76
2023/07/07 03:10:40;;;;;;;12.48;6.82;;;21.10;99.90;;;;;;5013002;28;20080;-76
2023/07/07 03:13:07;;;;;;;11.45;7.03;;;21.00;99.90;;;;;;5011643;28;20030;-75
2023/07/07 03:15:41;;;;;;;13.47;7.27;;;20.90;99.90;;;;;;5011985;28;20026;-75
2023/07/07 03:18:18;;;;;;;15.55;7.30;;;21.00;99.90;;;;;;5010226;28;20383;-76
2023/07/07 03:20:48;;;;;;;13.60;7.55;;;20.90;99.90;;;;;;5011815;28;20034;-76
2023/07/07 03:23:17;;;;;;;11.93;7.43;;;20.90;99.90;;;;;;5012272;28;20014;-75
2023/07/07 03:25:43;;;;;;;13.18;7.25;;;20.90;99.90;;;;;;5011311;28;20065;-75
2023/07/07 03:28:11;;;;;;;13.25;7.10;;;20.90;99.90;;;;;;5011666;28;20029;-76
2023/07/07 03:30:40;;;;;;;13.23;7.18;;;20.90;99.90;;;;;;5011509;28;20080;-75
2023/07/07 03:33:13;;;;;;;12.57;6.82;;;20.90;99.90;;;;;;5011621;28;20087;-76
2023/07/07 03:35:43;;;;;;;14.27;7.32;;;20.90;99.90;;;;;;5011739;28;20037;-77
2023/07/07 03:38:09;;;;;;;14.68;7.65;;;20.90;99.90;;;;;;5011140;28;20040;-76
2023/07/07 03:40:35;;;;;;;12.63;6.53;;;20.90;99.90;;;;;;5012825;28;20112;-73
2023/07/07 03:43:01;;;;;;;12.60;7.05;;;21.00;99.90;;;;;;5012518;28;20037;-76
2023/07/07 03:45:34;;;;;;;14.60;7.93;;;21.00;99.90;;;;;;5011278;28;20032;-75
2023/07/07 03:48:00;;;;;;;12.45;6.50;;;20.90;99.90;;;;;;4994933;28;20048;-77
2023/07/07 03:50:26;;;;;;;13.30;7.40;;;21.10;99.90;;;;;;5010033;28;20490;-76
2023/07/07 03:52:52;;;;;;;11.98;6.60;;;21.10;99.90;;;;;;5011244;28;20029;-76
2023/07/07 03:55:19;;;;;;;15.70;7.93;;;21.30;99.90;;;;;;5017045;28;20112;-75
2023/07/07 03:57:45;;;;;;;18.65;7.45;;;21.30;99.90;;;;;;5025606;28;20137;-75
2023/07/07 04:00:11;;;;;;;12.95;7.22;;;21.90;99.90;;;;;;5025226;28;20470;-75
2023/07/07 04:02:40;;;;;;;14.57;6.88;;;22.40;99.90;;;;;;5019927;28;20160;-76
2023/07/07 04:05:06;;;;;;;11.20;6.30;;;22.50;99.90;;;;;;5015916;28;20133;-74
2023/07/07 04:07:32;;;;;;;11.60;6.75;;;22.50;99.90;;;;;;4999698;28;20076;-77
2023/07/07 04:10:02;;;;;;;14.32;6.40;;;22.80;99.90;;;;;;4983330;28;20034;-78
2023/07/07 04:12:29;;;;;;;10.65;6.63;;;23.40;99.90;;;;;;4997796;28;20022;-77
2023/07/07 04:14:54;;;;;;;14.93;6.93;;;23.90;99.90;;;;;;4984038;28;20459;-75
2023/07/07 04:17:21;;;;;;;13.40;6.60;;;24.10;99.90;;;;;;4993898;28;20029;-79
2023/07/07 04:19:47;;;;;;;13.40;6.85;;;24.40;99.90;;;;;;5006280;28;20039;-76
2023/07/07 04:22:14;;;;;;;14.60;6.45;;;24.80;99.90;;;;;;5008751;28;20393;-76
2023/07/07 04:24:40;;;;;;;13.82;6.55;;;25.60;99.90;;;;;;5005147;28;20039;-74
2023/07/07 04:27:06;;;;;;;11.88;6.47;;;25.80;98.50;;;;;;4983231;28;20114;-78
2023/07/07 04:29:32;;;;;;;15.40;6.43;;;26.20;97.00;;;;;;4983777;28;20045;-77
2023/07/07 04:31:59;;;;;;;14.82;6.78;;;26.70;95.80;;;;;;5009321;28;20100;-78
2023/07/07 04:34:27;;;;;;;13.55;5.47;;;26.50;94.80;;;;;;5012260;28;20364;-76
2023/07/07 04:36:53;;;;;;;9.27;5.05;;;27.30;93.40;;;;;;4992627;28;20038;-77
2023/07/07 04:39:19;;;;;;;11.73;5.88;;;27.30;92.20;;;;;;5010749;28;20037;-79
2023/07/07 04:41:45;;;;;;;11.68;5.30;;;27.40;91.90;;;;;;5009025;28;20492;-76
2023/07/07 04:44:10;;;;;;;11.77;5.40;;;27.60;90.90;;;;;;5013479;28;20159;-75
2023/07/07 04:46:38;;;;;;;8.00;4.80;;;27.70;90.80;;;;;;5015746;28;20044;-75
2023/07/07 04:49:06;;;;;;;12.25;6.20;;;28.00;90.60;;;;;;5015491;28;20040;-76
2023/07/07 04:51:37;;;;;;;10.40;5.88;;;28.20;89.40;;;;;;5015954;28;20036;-78
2023/07/07 04:54:04;;;;;;;9.80;5.32;;;28.00;89.20;;;;;;5013989;28;20153;-75
2023/07/07 04:56:30;;;;;;;11.82;5.47;;;28.50;88.30;;;;;;5015710;28;20055;-76
2023/07/07 04:58:56;;;;;;;11.27;5.57;;;27.40;88.70;;;;;;5014105;28;20499;-75
2023/07/07 05:01:26;;;;;;;9.90;5.60;;;27.10;90.10;;;;;;5015121;28;20108;-78
2023/07/07 05:04:00;;;;;;;10.98;5.22;;;26.60;90.60;;;;;;5015326;28;20092;-79
2023/07/07 05:06:28;;;;;;;15.07;6.57;;;25.90;90.70;;;;;;5014815;28;20026;-80
2023/07/07 05:08:55;;;;;;;11.95;5.25;;;25.50;91.40;;;;;;5012586;28;20083;-77
2023/07/07 05:11:24;;;;;;;13.45;6.07;;;24.90;91.90;;;;;;5001207;28;20041;-78
2023/07/07 05:13:51;;;;;;;13.38;6.35;;;24.50;92.50;;;;;;5015396;28;20022;-75
2023/07/07 05:16:19;;;;;;;19.70;6.30;;;24.10;93.20;;;;;;5015053;28;20112;-76
2023/07/07 05:18:45;;;;;;;12.73;5.88;;;24.30;94.00;;;;;;5008846;28;20382;-78
2023/07/07 05:21:13;;;;;;;10.23;5.10;;;23.90;93.40;;;;;;5010374;28;20031;-79
2023/07/07 05:23:39;;;;;;;15.23;6.50;;;24.30;94.10;;;;;;5003417;28;20038;-78
2023/07/07 05:26:06;;;;;;;14.32;5.80;;;24.50;94.30;;;;;;5010546;28;20034;-78
2023/07/07 05:28:32;;;;;;;12.35;5.50;;;24.40;94.40;;;;;;5002418;28;20045;-80
2023/07/07 05:30:58;;;;;;;11.57;5.40;;;24.40;93.60;;;;;;5010899;28;20091;-80
2023/07/07 05:33:24;;;;;;;9.98;5.28;;;24.20;93.20;;;;;;5006010;28;20040;-79
2023/07/07 05:35:52;;;;;;;14.10;5.70;;;24.30;93.30;;;;;;5008082;28;20026;-75
2023/07/07 05:38:20;;;;;;;12.35;5.65;;;24.50;93.40;;;;;;5011485;28;20416;-75
2023/07/07 05:40:46;;;;;;;12.00;5.90;;;24.50;91.20;;;;;;4972952;28;20092;-80
2023/07/07 05:43:17;;;;;;;9.07;4.57;;;24.40;92.20;;;;;;5014762;28;20037;-79
2023/07/07 05:45:43;;;;;;;10.02;4.97;;;24.70;92.30;;;;;;5002747;28;20030;-79
2023/07/07 05:48:10;;;;;;;9.13;4.53;;;24.80;92.00;;;;;;5002414;28;20057;-80
2023/07/07 05:50:38;;;;;;;13.63;4.97;;;24.80;91.90;;;;;;5000539;28;20022;-82
2023/07/07 05:53:03;;;;;;;11.02;5.53;;;24.90;91.60;;;;;;5010966;28;20018;-78
2023/07/07 05:55:32;;;;;;;11.07;5.38;;;25.00;91.70;;;;;;5006886;28;20077;-75
2023/07/07 05:57:59;;;;;;;11.82;5.15;;;25.30;91.20;;;;;;5005031;28;20023;-76
2023/07/07 06:00:27;;;;;;;10.77;5.28;;;25.20;91.50;;;;;;5011851;28;20029;-74
2023/07/07 06:02:53;;;;;;;10.23;4.95;;;25.40;90.80;;;;;;5014138;28;20018;-79
2023/07/07 06:05:19;;;;;;;11.43;6.20;;;25.30;91.30;;;;;;5011933;28;20034;-76
2023/07/07 06:07:46;;;;;;;11.77;4.90;;;25.00;91.60;;;;;;5010130;28;20388;-78
2023/07/07 06:10:12;;;;;;;8.80;4.80;;;25.10;91.20;;;;;;4994772;28;20165;-75
2023/07/07 06:12:39;;;;;;;9.30;5.15;;;24.80;91.10;;;;;;4993172;28;20495;-75
2023/07/07 06:15:05;;;;;;;13.10;5.40;;;24.80;91.70;;;;;;4997809;28;20033;-76
2023/07/07 06:17:32;;;;;;;9.07;4.63;;;24.50;91.60;;;;;;5002569;28;20116;-75
2023/07/07 06:19:57;;;;;;;11.00;4.65;;;24.70;91.20;;;;;;4994315;28;20480;-76
2023/07/07 06:22:23;;;;;;;9.85;5.10;;;24.60;91.40;;;;;;4999520;28;20046;-75
2023/07/07 06:24:51;;;;;;;12.10;5.10;;;24.80;91.20;;;;;;4994222;28;20115;-75
2023/07/07 06:27:16;;;;;;;10.25;4.82;;;25.00;91.10;;;;;;4983635;28;20029;-75
2023/07/07 06:29:42;;;;;;;10.63;4.93;;;24.90;90.10;;;;;;4994081;28;20026;-81
2023/07/07 06:32:09;;;;;;;9.40;4.88;;;25.00;90.30;;;;;;4989533;28;20046;-76
2023/07/07 06:34:35;;;;;;;14.68;5.88;;;24.90;90.30;;;;;;4975989;28;20119;-75
2023/07/07 06:37:00;;;;;;;13.23;5.47;;;24.90;91.00;;;;;;4973635;28;20548;-81
2023/07/07 06:39:27;;;;;;;13.02;5.25;;;24.70;91.60;;;;;;4982136;28;20530;-78
2023/07/07 06:41:54;;;;;;;11.05;5.57;;;24.80;91.50;;;;;;4994202;28;20026;-79
2023/07/07 06:44:22;;;;;;;10.75;4.20;;;24.90;91.80;;;;;;4992169;28;20152;-77
2023/07/07 06:46:48;;;;;;;10.82;5.18;;;24.80;91.00;;;;;;4993616;28;20030;-78
2023/07/07 06:49:14;;;;;;;13.57;5.10;;;24.70;91.60;;;;;;4994048;28;20499;-74
2023/07/07 06:51:39;;;;;;;13.70;5.15;;;24.60;91.50;;;;;;5013274;28;20048;-79
2023/07/07 06:54:05;;;;;;;11.60;4.97;;;24.70;92.50;;;;;;5005826;28;20022;-80
2023/07/07 06:56:31;;;;;;;12.55;5.47;;;25.20;93.40;;;;;;4992549;28;20030;-79
2023/07/07 06:58:57;;;;;;;9.77;4.57;;;25.60;91.50;;;;;;5010670;28;20074;-79
2023/07/07 07:01:23;;;;;;;10.82;5.47;;;25.60;92.40;;;;;;5013112;28;20029;-77
2023/07/07 07:03:48;;;;;;;11.07;5.53;;;25.60;92.10;;;;;;5012716;28;20030;-77
2023/07/07 07:06:15;;;;;;;11.10;5.25;;;25.50;91.70;;;;;;4997302;28;20068;-78
2023/07/07 07:08:40;;;;;;;10.85;5.00;;;25.70;92.00;;;;;;5012403;28;20050;-82
2023/07/07 07:11:07;;;;;;;10.40;4.75;;;25.80;91.70;;;;;;5012917;28;20030;-79
2023/07/07 07:13:33;;;;;;;11.13;4.75;;;25.60;90.70;;;;;;5012576;28;20022;-75
2023/07/07 07:15:59;;;;;;;12.38;5.28;;;25.50;91.90;;;;;;4999344;28;20019;-76
2023/07/07 07:18:26;;;;;;;11.43;5.50;;;25.30;92.10;;;;;;4992986;28;20039;-80
2023/07/07 07:20:54;;;;;;;11.77;4.78;;;25.20;91.80;;;;;;4989108;28;20455;-81
2023/07/07 07:23:21;;;;;;;11.32;5.70;;;25.10;91.90;;;;;;4992210;28;20092;-81
2023/07/07 07:25:48;;;;;;;12.05;4.85;;;25.00;92.40;;;;;;4991145;28;20033;-80
2023/07/07 07:28:15;;;;;;;12.63;5.53;;;25.50;92.70;;;;;;4979294;28;20038;-76
2023/07/07 07:30:41;;;;;;;12.82;4.97;;;25.70;92.40;;;;;;4995178;28;20132;-78
2023/07/07 07:33:15;;;;;;;10.73;5.10;;;26.10;92.70;;;;;;4974044;28;20077;-79
2023/07/07 07:35:41;;;;;;;10.77;5.05;;;26.40;92.30;;;;;;5010176;28;20394;-79
2023/07/07 07:38:08;;;;;;;9.35;5.05;;;26.80;91.40;;;;;;4990012;28;20031;-75
2023/07/07 07:40:34;;;;;;;12.95;5.43;;;27.10;90.90;;;;;;4985360;28;20050;-77
2023/07/07 07:43:00;;;;;;;15.25;5.63;;;27.30;91.20;;;;;;4991951;28;20375;-77
2023/07/07 07:45:26;;;;;;;13.57;4.80;;;27.30;90.10;;;;;;4990090;28;20057;-77
2023/07/07 07:47:52;;;;;;;10.27;4.63;;;27.40;90.40;;;;;;5012199;28;20022;-78
2023/07/07 07:50:19;;;;;;;8.95;4.03;;;27.50;89.30;;;;;;5012433;28;20065;-82
2023/07/07 07:52:45;;;;;;;10.60;4.80;;;27.80;90.70;;;;;;5012423;28;20045;-76
2023/07/07 07:55:11;;;;;;;9.55;4.72;;;27.50;88.70;;;;;;5008243;28;20030;-77
2023/07/07 07:57:37;;;;;;;21.25;4.90;;;27.50;89.90;;;;;;4979219;28;20033;-75
2023/07/07 08:00:04;;;;;;;10.23;4.88;;;27.30;90.20;;;;;;4990053;28;20038;-77
2023/07/07 08:02:38;;;;;;;10.95;4.88;;;27.60;90.80;;;;;;4992666;28;20050;-79
2023/07/07 08:05:05;;;;;;;8.55;4.68;;;27.50;90.40;;;;;;4992838;28;20026;-80
2023/07/07 08:07:32;;;;;;;9.70;4.88;;;27.60;90.20;;;;;;4993642;28;20066;-80
2023/07/07 08:09:58;;;;;;;9.85;4.50;;;28.00;90.30;;;;;;5010207;28;20395;-75
2023/07/07 08:12:24;;;;;;;8.98;4.47;;;28.20;90.10;;;;;;5011938;28;20026;-78
2023/07/07 08:14:50;;;;;;;8.88;4.60;;;28.10;91.40;;;;;;5012444;28;20026;-76
2023/07/07 08:17:17;;;;;;;8.55;4.18;;;28.30;90.40;;;;;;5010723;28;20034;-78
2023/07/07 08:19:44;;;;;;;14.30;5.03;;;28.20;91.50;;;;;;5009064;28;20060;-76
2023/07/07 08:22:17;;;;;;;10.15;4.65;;;28.10;90.50;;;;;;5011725;28;20021;-78
2023/07/07 08:24:47;;;;;;;12.85;4.65;;;27.80;90.70;;;;;;5011762;28;20096;-77
2023/07/07 08:27:14;;;;;;;9.38;4.65;;;27.70;91.60;;;;;;5012158;28;20418;-78
2023/07/07 08:29:40;;;;;;;11.85;4.95;;;27.70;90.60;;;;;;5002072;28;20360;-79
2023/07/07 08:32:18;;;;;;;11.82;5.13;;;27.40;90.60;;;;;;5006235;28;20029;-79
2023/07/07 08:34:45;;;;;;;9.10;4.95;;;27.30;92.20;;;;;;5011186;28;20046;-80
2023/07/07 08:37:11;;;;;;;11.93;4.68;;;27.20;92.60;;;;;;5006920;28;20022;-81
2023/07/07 08:39:37;;;;;;;9.73;4.68;;;27.60;92.60;;;;;;5011226;28;20122;-77
2023/07/07 08:42:19;;;;;;;9.20;4.70;;;27.50;92.30;;;;;;5011930;28;20032;-80
2023/07/07 08:44:45;;;;;;;9.73;4.95;;;27.50;92.40;;;;;;5011382;28;20057;-80
2023/07/07 08:47:20;;;;;;;13.80;4.65;;;27.60;92.50;;;;;;5000595;28;20070;-80
2023/07/07 08:49:49;;;;;;;7.10;4.40;;;27.70;92.70;;;;;;5011791;28;20030;-77
2023/07/07 08:52:45;;;;;;;13.15;4.07;;;28.00;91.50;;;;;;5011574;28;20014;-81
2023/07/07 08:55:28;;;;;;;9.02;4.88;;;28.10;92.30;;;;;;4989625;28;20409;-78
2023/07/07 08:58:11;;;;;;;12.05;4.32;;;28.00;91.50;;;;;;4988375;28;20519;-78
2023/07/07 09:00:49;;;;;;;11.85;4.22;;;28.20;91.90;;;;;;4977997;28;20065;-80
2023/07/07 09:03:48;;;;;;;8.30;4.00;;;28.50;92.40;;;;;;4990065;28;20105;-80
2023/07/07 09:06:21;;;;;;;9.07;4.90;;;28.30;92.20;;;;;;4989075;28;20678;-78
2023/07/07 09:09:10;;;;;;;11.48;4.75;;;28.70;91.40;;;;;;4989327;28;20057;-78
2023/07/07 09:11:54;;;;;;;9.13;4.72;;;28.90;91.40;;;;;;4989804;28;20033;-78
2023/07/07 09:14:20;;;;;;;9.85;4.50;;;28.70;91.70;;;;;;4990112;28;20027;-79
2023/07/07 09:16:49;;;;;;;9.32;5.05;;;29.00;92.10;;;;;;4986116;28;20023;-75
2023/07/07 09:19:24;;;;;;;9.10;4.65;;;28.80;92.20;;;;;;4982719;28;20057;-79
2023/07/07 09:22:05;;;;;;;10.40;4.85;;;29.00;92.70;;;;;;4967860;28;20034;-80
2023/07/07 09:24:46;;;;;;;10.20;4.53;;;28.90;91.60;;;;;;4993265;28;20079;-81
2023/07/07 09:27:16;;;;;;;6.35;4.00;;;28.50;91.80;;;;;;4992174;28;20042;-80
2023/07/07 09:29:43;;;;;;;8.85;4.68;;;28.20;91.70;;;;;;4993341;28;20033;-78
2023/07/07 09:32:16;;;;;;;8.45;4.72;;;27.90;92.50;;;;;;5006155;28;20116;-75
2023/07/07 09:34:41;;;;;;;7.97;4.32;;;28.40;91.90;;;;;;5014976;28;20486;-77
2023/07/07 09:37:41;;;;;;;8.50;4.13;;;28.90;92.20;;;;;;5009198;28;20029;-78
2023/07/07 09:40:21;;;;;;;9.02;4.40;;;28.90;91.70;;;;;;4992759;28;20182;-87
2023/07/07 09:42:47;;;;;;;7.95;3.80;;;29.10;91.30;;;;;;4983260;28;20120;-79
2023/07/07 09:45:27;;;;;;;9.48;3.90;;;29.10;91.60;;;;;;4990213;28;20294;-75
2023/07/07 09:47:53;;;;;;;10.65;4.65;;;29.10;90.40;;;;;;4991861;28;20110;-76
2023/07/07 09:50:52;;;;;;;10.27;4.95;;;29.30;91.50;;;;;;4991372;28;20042;-77
2023/07/07 09:53:33;;;;;;;10.18;5.00;;;29.30;91.00;;;;;;4991526;28;20042;-80
2023/07/07 09:56:01;;;;;;;11.95;4.30;;;29.10;90.50;;;;;;4992691;28;20085;-77
2023/07/07 09:58:38;;;;;;;8.13;4.28;;;29.50;91.20;;;;;;4991119;28;20044;-76
2023/07/07 10:01:04;;;;;;;6.88;3.55;;;29.60;90.70;;;;;;4987124;28;20031;-77
2023/07/07 10:03:43;;;;;;;9.00;4.53;;;29.60;90.40;;;;;;4988521;28;20112;-77
2023/07/07 10:06:24;;;;;;;10.38;3.92;;;29.50;88.90;;;;;;4991082;28;20516;-77
2023/07/07 10:08:49;;;;;;;15.57;4.68;;;29.20;88.70;;;;;;4992570;28;20042;-77
2023/07/07 10:11:24;;;;;;;7.45;3.85;;;28.80;88.80;;;;;;4992364;28;20088;-75
2023/07/07 10:13:52;;;;;;;6.18;3.58;;;28.50;89.40;;;;;;4985505;28;20057;-77
2023/07/07 10:16:29;;;;;;;8.07;3.70;;;28.50;89.70;;;;;;4998075;28;20104;-81
2023/07/07 10:19:00;;;;;;;10.27;4.07;;;28.40;91.00;;;;;;5013804;28;20030;-80
2023/07/07 10:21:27;;;;;;;8.13;4.13;;;28.30;91.10;;;;;;5013958;28;20030;-76
2023/07/07 10:23:53;;;;;;;6.28;3.30;;;28.00;90.40;;;;;;5014332;28;20116;-78
2023/07/07 10:26:20;;;;;;;9.00;3.90;;;28.20;91.00;;;;;;5004903;28;20037;-77
2023/07/07 10:28:47;;;;;;;10.00;4.85;;;28.60;90.80;;;;;;5014305;28;20161;-77
2023/07/07 10:31:16;;;;;;;6.15;4.00;;;28.70;90.60;;;;;;5013562;28;20098;-79
2023/07/07 10:33:42;;;;;;;5.82;3.35;;;28.40;91.00;;;;;;5012270;28;20069;-76
2023/07/07 10:36:29;;;;;;;12.95;4.30;;;28.40;88.50;;;;;;5008963;28;20018;-79
2023/07/07 10:38:58;;;;;;;10.73;4.43;;;28.20;88.90;;;;;;5010104;28;20464;-79
2023/07/07 10:41:26;;;;;;;5.75;3.92;;;28.50;89.80;;;;;;5013736;28;20034;-76
2023/07/07 10:43:52;;;;;;;9.07;4.28;;;28.60;90.10;;;;;;5013745;28;20032;-78
2023/07/07 10:46:19;;;;;;;8.45;3.78;;;28.60;90.10;;;;;;5013062;28;20030;-79
2023/07/07 10:48:46;;;;;;;9.60;4.07;;;28.50;90.60;;;;;;5010212;28;20435;-77
2023/07/07 10:51:30;;;;;;;13.35;4.40;;;28.40;90.80;;;;;;5013488;28;20105;-79
2023/07/07 10:54:15;;;;;;;5.93;3.80;;;28.10;91.00;;;;;;5012515;28;20022;-78
2023/07/07 10:56:47;;;;;;;11.75;4.57;;;27.70;91.10;;;;;;5013662;28;20056;-81
2023/07/07 10:59:15;;;;;;;30.95;5.85;;;27.30;90.90;;;;;;5009090;28;20038;-77
2023/07/07 11:01:45;;;;;;;13.27;4.18;;;25.50;89.90;;;;;;5005588;28;20542;-80
2023/07/07 11:04:17;;;;;;;25.80;5.53;;;24.40;90.90;;;;;;5011771;28;20483;-74
2023/07/07 11:07:16;;;;;;;12.95;4.60;;;22.50;98.40;;;;;;4993958;28;20042;-74
2023/07/07 11:10:10;;;;;;;9.05;3.25;;;20.70;99.90;;;;;;5016160;28;20503;-75
2023/07/07 11:12:55;;;;;;;10.48;4.32;;;20.20;99.90;;;;;;5020047;28;20022;-77
2023/07/07 11:15:27;;;;;;;6.97;3.45;;;19.70;99.90;;;;;;5011614;28;20452;-77
2023/07/07 11:17:53;;;;;;;8.18;4.18;;;21.50;99.90;;;;;;5011144;28;20076;-76
2023/07/07 11:20:34;;;;;;;9.77;5.43;;;19.70;99.90;;;;;;5011517;28;20034;-79
2023/07/07 11:23:18;;;;;;;13.18;5.18;;;19.80;99.90;;;;;;5010887;28;20108;-76
2023/07/07 11:26:02;;;;;;;8.85;4.72;;;19.90;99.90;;;;;;4996291;28;20514;-77
2023/07/07 11:28:43;;;;;;;10.63;4.90;;;20.00;99.90;;;;;;5012202;28;20092;-76
2023/07/07 11:31:27;;;;;;;12.57;5.32;;;20.10;99.90;;;;;;5012668;28;20040;-78
2023/07/07 11:34:02;;;;;;;9.40;5.28;;;20.20;99.90;;;;;;5012092;28;20057;-77
2023/07/07 11:36:37;;;;;;;15.02;5.35;;;20.50;99.90;;;;;;5011358;28;20108;-77
2023/07/07 11:39:23;;;;;;;13.75;6.35;;;20.60;99.90;;;;;;5008853;28;20037;-80
2023/07/07 11:42:05;;;;;;;11.38;5.10;;;20.70;99.90;;;;;;5008599;28;20641;-82
2023/07/07 11:44:31;;;;;;;;;;;20.90;99.90;;;;;;5017320;28;20116;-78
2023/07/07 11:47:26;;;;;;;11.25;6.43;;;21.20;99.90;;;;;;5011942;28;20089;-77
2023/07/07 11:50:27;;;;;;;12.45;7.07;;;21.40;99.90;;;;;;5013614;28;20088;-79
2023/07/07 11:53:19;;;;;;;13.55;6.68;;;21.70;99.90;;;;;;5011955;28;20026;-78
2023/07/07 11:55:54;;;;;;;14.55;7.55;;;22.10;99.90;;;;;;5013220;28;20598;-78
2023/07/07 11:58:49;;;;;;;10.68;6.35;;;22.40;99.90;;;;;;5019172;28;20032;-80
2023/07/07 12:01:40;;;;;;;9.90;5.80;;;22.80;99.90;;;;;;5013280;28;20032;-78
2023/07/07 12:04:27;;;;;;;11.23;5.78;;;23.10;99.90;;;;;;5012947;28;20060;-78
2023/07/07 12:07:00;;;;;;;8.65;5.07;;;23.60;99.90;;;;;;5008776;28;20035;-77
2023/07/07 12:10:11;;;;;;;9.07;5.72;;;23.70;99.90;;;;;;4964173;28;20035;-77
2023/07/07 12:12:42;;;;;;;11.50;4.93;;;23.90;99.90;;;;;;4965369;28;20041;-77
2023/07/07 12:15:32;;;;;;;9.40;4.95;;;23.80;99.90;;;;;;4965115;28;20086;-77
2023/07/07 12:18:19;;;;;;;12.07;5.72;;;23.80;99.90;;;;;;4953454;28;20051;-77
2023/07/07 12:20:58;;;;;;;9.10;5.00;;;23.90;99.90;;;;;;4954909;28;20042;-77
2023/07/07 12:23:30;;;;;;;8.10;4.57;;;24.00;99.90;;;;;;4966746;28;20043;-77
2023/07/07 12:26:14;;;;;;;8.27;4.15;;;24.30;99.90;;;;;;4962535;28;20038;-77
2023/07/07 12:28:48;;;;;;;9.57;4.82;;;24.50;99.90;;;;;;4956278;28;20098;-75
2023/07/07 12:31:16;;;;;;;8.38;4.78;;;24.60;99.90;;;;;;4971811;28;20031;-77
2023/07/07 12:33:42;;;;;;;7.25;4.18;;;24.80;99.90;;;;;;4947923;28;20023;-77
2023/07/07 12:36:13;;;;;;;8.38;4.40;;;25.00;99.90;;;;;;4951603;28;20046;-76
2023/07/07 12:38:39;;;;;;;10.05;5.05;;;25.10;99.90;;;;;;4960707;28;20416;-76
2023/07/07 12:41:14;;;;;;;6.80;4.40;;;25.40;99.90;;;;;;4951257;28;20031;-76
2023/07/07 12:44:01;;;;;;;8.95;4.25;;;25.50;97.20;;;;;;4951298;28;20692;-77
2023/07/07 12:46:28;;;;;;;8.00;4.00;;;25.70;99.00;;;;;;4953268;28;20476;-77
2023/07/07 12:48:58;;;;;;;7.43;3.60;;;25.80;97.60;;;;;;4969998;28;20045;-77
2023/07/07 12:51:28;;;;;;;6.10;3.50;;;26.00;99.00;;;;;;4991962;28;20027;-76
2023/07/07 12:53:55;;;;;;;7.80;4.07;;;26.20;99.10;;;;;;4992002;28;20035;-77
2023/07/07 12:56:24;;;;;;;11.32;4.45;;;26.40;98.20;;;;;;4997295;28;20472;-77
2023/07/07 12:58:58;;;;;;;10.20;4.63;;;26.40;99.90;;;;;;5007273;28;20041;-78
2023/07/07 13:01:40;;;;;;;7.65;4.13;;;26.40;99.90;;;;;;5011155;28;20484;-76
2023/07/07 13:04:13;;;;;;;10.43;5.32;;;26.60;99.60;;;;;;4983818;28;20113;-77